<?xml version="1.0" encoding="UTF-8" standalone="no" ?>
<gpx xmlns="http://www.topografix.com/GPX/1/1" xmlns:xsi="http://www.w3.org/2001/XMLSchema-instance" xsi:schemaLocation="http://www.topografix.com/GPX/1/1 http://www.topografix.com/GPX/1/1/gpx.xsd" version="1.1" creator="VisuGPX - https://www.visugpx.com">
  <metadata>
    <name>Montigny-Pretin-Roche du feu-Mesnay-Montigny</name>
    <desc><![CDATA[Trail avec denivelé]]></desc>
  </metadata>
  <trk>
    <name><![CDATA[--Villette-lÃ¨s-Arbois-- OR-2458109:Villette feu]]></name>
    <trkseg>
      <trkpt lat="46.93239" lon="5.761">
        <ele>291</ele>
        <time>2013-05-04T10:40:00Z</time>
      </trkpt>
      <trkpt lat="46.93192" lon="5.76126">
        <ele>293</ele>
        <time>2013-05-04T10:40:28Z</time>
      </trkpt>
      <trkpt lat="46.934" lon="5.76366">
        <ele>297</ele>
        <time>2013-05-04T10:42:50Z</time>
      </trkpt>
      <trkpt lat="46.93078" lon="5.77023">
        <ele>318</ele>
        <time>2013-05-04T10:48:03Z</time>
      </trkpt>
      <trkpt lat="46.93086" lon="5.77113">
        <ele>322</ele>
        <time>2013-05-04T10:48:40Z</time>
      </trkpt>
      <trkpt lat="46.93063" lon="5.7725">
        <ele>332</ele>
        <time>2013-05-04T10:49:41Z</time>
      </trkpt>
      <trkpt lat="46.93036" lon="5.77392">
        <ele>335</ele>
        <time>2013-05-04T10:50:37Z</time>
      </trkpt>
      <trkpt lat="46.93102" lon="5.77405">
        <ele>340</ele>
        <time>2013-05-04T10:51:18Z</time>
      </trkpt>
      <trkpt lat="46.93069" lon="5.77476">
        <ele>341</ele>
        <time>2013-05-04T10:51:49Z</time>
      </trkpt>
      <trkpt lat="46.92941" lon="5.77422">
        <ele>336</ele>
        <time>2013-05-04T10:52:53Z</time>
      </trkpt>
      <trkpt lat="46.92843" lon="5.77523">
        <ele>339</ele>
        <time>2013-05-04T10:53:59Z</time>
      </trkpt>
      <trkpt lat="46.92947" lon="5.77572">
        <ele>348</ele>
        <time>2013-05-04T10:55:06Z</time>
      </trkpt>
      <trkpt lat="46.92831" lon="5.77782">
        <ele>353</ele>
        <time>2013-05-04T10:56:48Z</time>
      </trkpt>
      <trkpt lat="46.92738" lon="5.78141">
        <ele>354</ele>
        <time>2013-05-04T10:59:06Z</time>
      </trkpt>
      <trkpt lat="46.92613" lon="5.78164">
        <ele>351</ele>
        <time>2013-05-04T11:00:09Z</time>
      </trkpt>
      <trkpt lat="46.92736" lon="5.78325">
        <ele>345</ele>
        <time>2013-05-04T11:01:28Z</time>
      </trkpt>
      <trkpt lat="46.92777" lon="5.78331">
        <ele>345</ele>
        <time>2013-05-04T11:01:50Z</time>
      </trkpt>
      <trkpt lat="46.92704" lon="5.78502">
        <ele>353</ele>
        <time>2013-05-04T11:03:11Z</time>
      </trkpt>
      <trkpt lat="46.92686" lon="5.78573">
        <ele>354</ele>
        <time>2013-05-04T11:03:39Z</time>
      </trkpt>
      <trkpt lat="46.92753" lon="5.78617">
        <ele>351</ele>
        <time>2013-05-04T11:04:14Z</time>
      </trkpt>
      <trkpt lat="46.92757" lon="5.78736">
        <ele>361</ele>
        <time>2013-05-04T11:05:09Z</time>
      </trkpt>
      <trkpt lat="46.92813" lon="5.78866">
        <ele>357</ele>
        <time>2013-05-04T11:05:59Z</time>
      </trkpt>
      <trkpt lat="46.92872" lon="5.79173">
        <ele>396</ele>
        <time>2013-05-04T11:08:58Z</time>
      </trkpt>
      <trkpt lat="46.93039" lon="5.79297">
        <ele>408</ele>
        <time>2013-05-04T11:10:50Z</time>
      </trkpt>
      <trkpt lat="46.93193" lon="5.79214">
        <ele>412</ele>
        <time>2013-05-04T11:12:20Z</time>
      </trkpt>
      <trkpt lat="46.93379" lon="5.793">
        <ele>415</ele>
        <time>2013-05-04T11:14:06Z</time>
      </trkpt>
      <trkpt lat="46.93395" lon="5.79372">
        <ele>415</ele>
        <time>2013-05-04T11:14:33Z</time>
      </trkpt>
      <trkpt lat="46.93614" lon="5.79555">
        <ele>458</ele>
        <time>2013-05-04T11:17:56Z</time>
      </trkpt>
      <trkpt lat="46.93689" lon="5.79563">
        <ele>433</ele>
        <time>2013-05-04T11:18:48Z</time>
      </trkpt>
      <trkpt lat="46.94065" lon="5.80012">
        <ele>398</ele>
        <time>2013-05-04T11:22:37Z</time>
      </trkpt>
      <trkpt lat="46.94219" lon="5.80317">
        <ele>393</ele>
        <time>2013-05-04T11:24:47Z</time>
      </trkpt>
      <trkpt lat="46.94288" lon="5.80808">
        <ele>402</ele>
        <time>2013-05-04T11:27:57Z</time>
      </trkpt>
      <trkpt lat="46.94112" lon="5.80825">
        <ele>450</ele>
        <time>2013-05-04T11:31:27Z</time>
      </trkpt>
      <trkpt lat="46.9408" lon="5.81302">
        <ele>432</ele>
        <time>2013-05-04T11:33:59Z</time>
      </trkpt>
      <trkpt lat="46.94171" lon="5.81426">
        <ele>424</ele>
        <time>2013-05-04T11:34:58Z</time>
      </trkpt>
      <trkpt lat="46.94173" lon="5.8155">
        <ele>450</ele>
        <time>2013-05-04T11:37:06Z</time>
      </trkpt>
      <trkpt lat="46.93986" lon="5.81439">
        <ele>467</ele>
        <time>2013-05-04T11:39:11Z</time>
      </trkpt>
      <trkpt lat="46.94147" lon="5.81786">
        <ele>476</ele>
        <time>2013-05-04T11:41:52Z</time>
      </trkpt>
      <trkpt lat="46.94118" lon="5.81868">
        <ele>511</ele>
        <time>2013-05-04T11:44:39Z</time>
      </trkpt>
      <trkpt lat="46.9386" lon="5.81671">
        <ele>545</ele>
        <time>2013-05-04T11:47:51Z</time>
      </trkpt>
      <trkpt lat="46.93863" lon="5.81074">
        <ele>556</ele>
        <time>2013-05-04T11:51:37Z</time>
      </trkpt>
      <trkpt lat="46.93371" lon="5.8158">
        <ele>552</ele>
        <time>2013-05-04T11:56:48Z</time>
      </trkpt>
      <trkpt lat="46.934" lon="5.82104">
        <ele>536</ele>
        <time>2013-05-04T11:59:39Z</time>
      </trkpt>
      <trkpt lat="46.93415" lon="5.82392">
        <ele>545</ele>
        <time>2013-05-04T12:01:34Z</time>
      </trkpt>
      <trkpt lat="46.9333" lon="5.8246">
        <ele>525</ele>
        <time>2013-05-04T12:02:34Z</time>
      </trkpt>
      <trkpt lat="46.93388" lon="5.8252">
        <ele>540</ele>
        <time>2013-05-04T12:03:38Z</time>
      </trkpt>
      <trkpt lat="46.93497" lon="5.82799">
        <ele>492</ele>
        <time>2013-05-04T12:05:58Z</time>
      </trkpt>
      <trkpt lat="46.93394" lon="5.82782">
        <ele>484</ele>
        <time>2013-05-04T12:06:48Z</time>
      </trkpt>
      <trkpt lat="46.93391" lon="5.82864">
        <ele>469</ele>
        <time>2013-05-04T12:07:24Z</time>
      </trkpt>
      <trkpt lat="46.93631" lon="5.83147">
        <ele>462</ele>
        <time>2013-05-04T12:09:58Z</time>
      </trkpt>
      <trkpt lat="46.93546" lon="5.83173">
        <ele>430</ele>
        <time>2013-05-04T12:11:12Z</time>
      </trkpt>
      <trkpt lat="46.93576" lon="5.83803">
        <ele>366</ele>
        <time>2013-05-04T12:15:06Z</time>
      </trkpt>
      <trkpt lat="46.93535" lon="5.84014">
        <ele>391</ele>
        <time>2013-05-04T12:17:06Z</time>
      </trkpt>
      <trkpt lat="46.93511" lon="5.84267">
        <ele>419</ele>
        <time>2013-05-04T12:19:23Z</time>
      </trkpt>
      <trkpt lat="46.93403" lon="5.84044">
        <ele>440</ele>
        <time>2013-05-04T12:21:24Z</time>
      </trkpt>
      <trkpt lat="46.93356" lon="5.84233">
        <ele>474</ele>
        <time>2013-05-04T12:23:47Z</time>
      </trkpt>
      <trkpt lat="46.9316" lon="5.83851">
        <ele>524</ele>
        <time>2013-05-04T12:27:55Z</time>
      </trkpt>
      <trkpt lat="46.92776" lon="5.83387">
        <ele>557</ele>
        <time>2013-05-04T12:32:57Z</time>
      </trkpt>
      <trkpt lat="46.92705" lon="5.83117">
        <ele>562</ele>
        <time>2013-05-04T12:34:47Z</time>
      </trkpt>
      <trkpt lat="46.92576" lon="5.82949">
        <ele>564</ele>
        <time>2013-05-04T12:36:21Z</time>
      </trkpt>
      <trkpt lat="46.92679" lon="5.8261">
        <ele>568</ele>
        <time>2013-05-04T12:38:39Z</time>
      </trkpt>
      <trkpt lat="46.92274" lon="5.82216">
        <ele>568</ele>
        <time>2013-05-04T12:42:56Z</time>
      </trkpt>
      <trkpt lat="46.92005" lon="5.8213">
        <ele>575</ele>
        <time>2013-05-04T12:45:29Z</time>
      </trkpt>
      <trkpt lat="46.91905" lon="5.81997">
        <ele>572</ele>
        <time>2013-05-04T12:46:37Z</time>
      </trkpt>
      <trkpt lat="46.91864" lon="5.8204">
        <ele>568</ele>
        <time>2013-05-04T12:47:01Z</time>
      </trkpt>
      <trkpt lat="46.91718" lon="5.81915">
        <ele>561</ele>
        <time>2013-05-04T12:48:23Z</time>
      </trkpt>
      <trkpt lat="46.91633" lon="5.81834">
        <ele>557</ele>
        <time>2013-05-04T12:49:12Z</time>
      </trkpt>
      <trkpt lat="46.91512" lon="5.81791">
        <ele>539</ele>
        <time>2013-05-04T12:50:19Z</time>
      </trkpt>
      <trkpt lat="46.91193" lon="5.81868">
        <ele>560</ele>
        <time>2013-05-04T12:53:35Z</time>
      </trkpt>
      <trkpt lat="46.9107" lon="5.81653">
        <ele>550</ele>
        <time>2013-05-04T12:55:06Z</time>
      </trkpt>
      <trkpt lat="46.90888" lon="5.81799">
        <ele>565</ele>
        <time>2013-05-04T12:57:13Z</time>
      </trkpt>
      <trkpt lat="46.90598" lon="5.82087">
        <ele>558</ele>
        <time>2013-05-04T13:00:11Z</time>
      </trkpt>
      <trkpt lat="46.90234" lon="5.82233">
        <ele>574</ele>
        <time>2013-05-04T13:03:50Z</time>
      </trkpt>
      <trkpt lat="46.89876" lon="5.82537">
        <ele>557</ele>
        <time>2013-05-04T13:07:10Z</time>
      </trkpt>
      <trkpt lat="46.89727" lon="5.82696">
        <ele>552</ele>
        <time>2013-05-04T13:08:42Z</time>
      </trkpt>
      <trkpt lat="46.89636" lon="5.82696">
        <ele>548</ele>
        <time>2013-05-04T13:09:26Z</time>
      </trkpt>
      <trkpt lat="46.8958" lon="5.82327">
        <ele>559</ele>
        <time>2013-05-04T13:11:56Z</time>
      </trkpt>
      <trkpt lat="46.89636" lon="5.82027">
        <ele>578</ele>
        <time>2013-05-04T13:14:10Z</time>
      </trkpt>
      <trkpt lat="46.89686" lon="5.81559">
        <ele>556</ele>
        <time>2013-05-04T13:16:45Z</time>
      </trkpt>
      <trkpt lat="46.89724" lon="5.81495">
        <ele>559</ele>
        <time>2013-05-04T13:17:19Z</time>
      </trkpt>
      <trkpt lat="46.8975" lon="5.81151">
        <ele>529</ele>
        <time>2013-05-04T13:19:20Z</time>
      </trkpt>
      <trkpt lat="46.89953" lon="5.81035">
        <ele>495</ele>
        <time>2013-05-04T13:21:22Z</time>
      </trkpt>
      <trkpt lat="46.89999" lon="5.80885">
        <ele>476</ele>
        <time>2013-05-04T13:22:28Z</time>
      </trkpt>
      <trkpt lat="46.89997" lon="5.80756">
        <ele>453</ele>
        <time>2013-05-04T13:23:27Z</time>
      </trkpt>
      <trkpt lat="46.9017" lon="5.80744">
        <ele>413</ele>
        <time>2013-05-04T13:25:20Z</time>
      </trkpt>
      <trkpt lat="46.90167" lon="5.8092">
        <ele>437</ele>
        <time>2013-05-04T13:27:05Z</time>
      </trkpt>
      <trkpt lat="46.90322" lon="5.81126">
        <ele>474</ele>
        <time>2013-05-04T13:29:59Z</time>
      </trkpt>
      <trkpt lat="46.90592" lon="5.8116">
        <ele>483</ele>
        <time>2013-05-04T13:32:34Z</time>
      </trkpt>
      <trkpt lat="46.90574" lon="5.8107">
        <ele>472</ele>
        <time>2013-05-04T13:33:11Z</time>
      </trkpt>
      <trkpt lat="46.90381" lon="5.80971">
        <ele>439</ele>
        <time>2013-05-04T13:35:08Z</time>
      </trkpt>
      <trkpt lat="46.90255" lon="5.80821">
        <ele>400</ele>
        <time>2013-05-04T13:36:55Z</time>
      </trkpt>
      <trkpt lat="46.90269" lon="5.804">
        <ele>356</ele>
        <time>2013-05-04T13:39:35Z</time>
      </trkpt>
      <trkpt lat="46.90258" lon="5.80057">
        <ele>334</ele>
        <time>2013-05-04T13:41:29Z</time>
      </trkpt>
      <trkpt lat="46.90231" lon="5.79722">
        <ele>324</ele>
        <time>2013-05-04T13:43:21Z</time>
      </trkpt>
      <trkpt lat="46.90313" lon="5.79495">
        <ele>323</ele>
        <time>2013-05-04T13:44:53Z</time>
      </trkpt>
      <trkpt lat="46.90296" lon="5.79353">
        <ele>322</ele>
        <time>2013-05-04T13:45:44Z</time>
      </trkpt>
      <trkpt lat="46.90413" lon="5.79349">
        <ele>325</ele>
        <time>2013-05-04T13:46:50Z</time>
      </trkpt>
      <trkpt lat="46.90471" lon="5.79366">
        <ele>339</ele>
        <time>2013-05-04T13:47:49Z</time>
      </trkpt>
      <trkpt lat="46.90554" lon="5.79278">
        <ele>353</ele>
        <time>2013-05-04T13:49:03Z</time>
      </trkpt>
      <trkpt lat="46.9068" lon="5.79214">
        <ele>382</ele>
        <time>2013-05-04T13:51:05Z</time>
      </trkpt>
      <trkpt lat="46.90775" lon="5.7916">
        <ele>384</ele>
        <time>2013-05-04T13:52:02Z</time>
      </trkpt>
      <trkpt lat="46.90885" lon="5.79179">
        <ele>399</ele>
        <time>2013-05-04T13:53:21Z</time>
      </trkpt>
      <trkpt lat="46.90989" lon="5.79246">
        <ele>412</ele>
        <time>2013-05-04T13:54:36Z</time>
      </trkpt>
      <trkpt lat="46.91048" lon="5.79274">
        <ele>419</ele>
        <time>2013-05-04T13:55:17Z</time>
      </trkpt>
      <trkpt lat="46.91068" lon="5.7914">
        <ele>417</ele>
        <time>2013-05-04T13:56:04Z</time>
      </trkpt>
      <trkpt lat="46.91109" lon="5.79135">
        <ele>417</ele>
        <time>2013-05-04T13:56:26Z</time>
      </trkpt>
      <trkpt lat="46.91158" lon="5.79268">
        <ele>433</ele>
        <time>2013-05-04T13:57:46Z</time>
      </trkpt>
      <trkpt lat="46.91279" lon="5.7937">
        <ele>443</ele>
        <time>2013-05-04T13:59:12Z</time>
      </trkpt>
      <trkpt lat="46.91404" lon="5.79442">
        <ele>448</ele>
        <time>2013-05-04T14:00:30Z</time>
      </trkpt>
      <trkpt lat="46.91561" lon="5.79522">
        <ele>469</ele>
        <time>2013-05-04T14:02:25Z</time>
      </trkpt>
      <trkpt lat="46.91908" lon="5.79993">
        <ele>540</ele>
        <time>2013-05-04T14:08:24Z</time>
      </trkpt>
      <trkpt lat="46.91886" lon="5.79898">
        <ele>530</ele>
        <time>2013-05-04T14:09:01Z</time>
      </trkpt>
      <trkpt lat="46.91908" lon="5.79815">
        <ele>521</ele>
        <time>2013-05-04T14:09:35Z</time>
      </trkpt>
      <trkpt lat="46.91977" lon="5.79662">
        <ele>505</ele>
        <time>2013-05-04T14:10:39Z</time>
      </trkpt>
      <trkpt lat="46.92043" lon="5.7954">
        <ele>490</ele>
        <time>2013-05-04T14:11:37Z</time>
      </trkpt>
      <trkpt lat="46.92096" lon="5.79379">
        <ele>489</ele>
        <time>2013-05-04T14:12:41Z</time>
      </trkpt>
      <trkpt lat="46.92277" lon="5.79259">
        <ele>471</ele>
        <time>2013-05-04T14:14:17Z</time>
      </trkpt>
      <trkpt lat="46.92386" lon="5.79319">
        <ele>471</ele>
        <time>2013-05-04T14:15:20Z</time>
      </trkpt>
      <trkpt lat="46.9251" lon="5.7928">
        <ele>457</ele>
        <time>2013-05-04T14:16:22Z</time>
      </trkpt>
      <trkpt lat="46.92626" lon="5.79276">
        <ele>446</ele>
        <time>2013-05-04T14:17:19Z</time>
      </trkpt>
      <trkpt lat="46.92694" lon="5.79306">
        <ele>467</ele>
        <time>2013-05-04T14:19:00Z</time>
      </trkpt>
      <trkpt lat="46.92717" lon="5.79246">
        <ele>436</ele>
        <time>2013-05-04T14:20:17Z</time>
      </trkpt>
      <trkpt lat="46.92494" lon="5.78963">
        <ele>400</ele>
        <time>2013-05-04T14:22:47Z</time>
      </trkpt>
      <trkpt lat="46.92553" lon="5.78688">
        <ele>364</ele>
        <time>2013-05-04T14:24:46Z</time>
      </trkpt>
      <trkpt lat="46.9262" lon="5.78746">
        <ele>369</ele>
        <time>2013-05-04T14:25:34Z</time>
      </trkpt>
      <trkpt lat="46.92663" lon="5.78583">
        <ele>354</ele>
        <time>2013-05-04T14:26:35Z</time>
      </trkpt>
      <trkpt lat="46.92784" lon="5.783">
        <ele>345</ele>
        <time>2013-05-04T14:28:27Z</time>
      </trkpt>
      <trkpt lat="46.9261" lon="5.78134">
        <ele>351</ele>
        <time>2013-05-04T14:30:26Z</time>
      </trkpt>
      <trkpt lat="46.9274" lon="5.78089">
        <ele>356</ele>
        <time>2013-05-04T14:31:43Z</time>
      </trkpt>
      <trkpt lat="46.92843" lon="5.77731">
        <ele>353</ele>
        <time>2013-05-04T14:34:02Z</time>
      </trkpt>
      <trkpt lat="46.92963" lon="5.77604">
        <ele>348</ele>
        <time>2013-05-04T14:35:15Z</time>
      </trkpt>
      <trkpt lat="46.92828" lon="5.77534">
        <ele>339</ele>
        <time>2013-05-04T14:36:24Z</time>
      </trkpt>
      <trkpt lat="46.92919" lon="5.77411">
        <ele>336</ele>
        <time>2013-05-04T14:37:26Z</time>
      </trkpt>
      <trkpt lat="46.93083" lon="5.77467">
        <ele>341</ele>
        <time>2013-05-04T14:39:03Z</time>
      </trkpt>
      <trkpt lat="46.93108" lon="5.77388">
        <ele>340</ele>
        <time>2013-05-04T14:39:33Z</time>
      </trkpt>
      <trkpt lat="46.93035" lon="5.77338">
        <ele>328</ele>
        <time>2013-05-04T14:40:18Z</time>
      </trkpt>
      <trkpt lat="46.93107" lon="5.77098">
        <ele>322</ele>
        <time>2013-05-04T14:41:47Z</time>
      </trkpt>
      <trkpt lat="46.93085" lon="5.76969">
        <ele>318</ele>
        <time>2013-05-04T14:42:31Z</time>
      </trkpt>
      <trkpt lat="46.93406" lon="5.76349">
        <ele>297</ele>
        <time>2013-05-04T14:46:52Z</time>
      </trkpt>
      <trkpt lat="46.93212" lon="5.76139">
        <ele>292</ele>
        <time>2013-05-04T14:48:56Z</time>
      </trkpt>
      <trkpt lat="46.93236" lon="5.76079">
        <ele>291</ele>
        <time>2013-05-04T14:49:20Z</time>
      </trkpt>
    </trkseg>
  </trk>
</gpx>